Moreland, Pennsylvania
Current Conditions -  °F | °C
As of 4:54 PM on Sunday 25 Jan 2015 (Local Time) from KIPT Reporting Station
Overcast Overcast  
Wind Chill: 31°   Ceiling: 4400
Heat Index: 36°   Visibility: 10mi
Dew Point: 12°   Wind: 6mph
Humidity: 37%   Direction: 10°N
Pressure: 29.83"   Gusts: NA
Location:  41.225°N, 76.7388°W
Report Text: KIPT 252154Z 01005KT 10SM OVC044 02/M11 A2983 RMK AO2 SLP105 T00221111
Loading
Personal Weather Stations






























Interactive Weather Map New forecast layout! Learn more

10-Day Weather Forecast

Advertisements
Track Severe Weather on mobile